Time;durP1;ratioP1;P1;durP2;ratioP2;P2;SDS_P1;SDS_P2;PMS_P1;PMS_P2;Temp;Humidity;BMP_temperature;BMP_pressure;BME280_temperature;BME280_humidity;BME280_pressure;Samples;Min_cycle;Max_cycle;Signal;HPM_P1;HPM_P2
2022/08/16 06:09:03;;;;;;;;;26.75;26.75;;;;;22.93;57.61;100510.88;5077370;27;45552;-69
2022/08/16 06:11:28;;;;;;;;;25.25;25.00;;;;;22.99;57.25;100510.19;5066120;27;45523;-70
2022/08/16 06:13:54;;;;;;;;;29.25;26.25;;;;;23.15;57.42;100509.34;5061711;27;45896;-70
2022/08/16 06:16:20;;;;;;;;;24.75;24.50;;;;;23.36;57.03;100513.38;5058590;27;45582;-70
2022/08/16 06:18:46;;;;;;;;;26.00;24.25;;;;;23.59;56.96;100513.50;5066872;27;46057;-70
2022/08/16 06:21:13;;;;;;;;;29.25;25.75;;;;;23.84;55.92;100509.81;5067724;27;45765;-70
2022/08/16 06:23:39;;;;;;;;;28.00;25.50;;;;;24.09;55.70;100499.75;5068910;27;45368;-70
2022/08/16 06:26:06;;;;;;;;;24.00;23.33;;;;;24.37;55.16;100496.53;5064076;27;44836;-70
2022/08/16 06:28:33;;;;;;;;;22.00;21.33;;;;;24.65;55.06;100489.69;5067145;27;45977;-69
2022/08/16 06:30:58;;;;;;;;;19.67;19.67;;;;;24.90;54.25;100476.78;5066588;27;45461;-70
2022/08/16 06:33:23;;;;;;;;;22.00;22.00;;;;;25.17;53.71;100490.75;5060145;28;45571;-70
2022/08/16 06:35:51;;;;;;;;;21.00;19.67;;;;;25.42;53.23;100485.06;5062099;27;45426;-70
2022/08/16 06:38:17;;;;;;;;;22.67;22.67;;;;;25.63;52.84;100503.34;5066107;28;45517;-69
2022/08/16 06:40:42;;;;;;;;;23.33;22.00;;;;;25.83;52.35;100497.31;5062595;28;45490;-70
2022/08/16 06:43:07;;;;;;;;;21.00;21.00;;;;;26.02;51.56;100495.03;5067090;27;45442;-71
2022/08/16 06:45:36;;;;;;;;;20.67;20.67;;;;;26.17;51.44;100501.28;5065584;28;45513;-71
2022/08/16 06:48:05;;;;;;;;;18.67;18.00;;;;;26.33;51.26;100498.53;5065307;27;45874;-71
2022/08/16 06:50:31;;;;;;;;;20.67;19.00;;;;;26.43;51.21;100499.06;5059106;27;45571;-70
2022/08/16 06:52:57;;;;;;;;;25.00;23.67;;;;;26.53;50.85;100502.28;5066531;27;45502;-70
2022/08/16 06:55:23;;;;;;;;;19.67;18.67;;;;;26.63;50.19;100509.28;5070730;27;45531;-70
2022/08/16 06:57:51;;;;;;;;;18.33;18.33;;;;;26.71;50.29;100503.72;5067069;28;46205;-70
2022/08/16 07:00:17;;;;;;;;;24.00;20.67;;;;;26.79;49.67;100509.03;5069546;27;45562;-70
2022/08/16 07:02:43;;;;;;;;;21.67;20.67;;;;;26.88;49.60;100500.72;5069971;27;45597;-70
2022/08/16 07:05:10;;;;;;;;;20.00;18.33;;;;;26.94;49.94;100508.97;5069697;27;45395;-70
2022/08/16 07:07:36;;;;;;;;;18.67;18.67;;;;;27.03;49.57;100506.09;5082644;27;45431;-69
2022/08/16 07:10:04;;;;;;;;;22.33;20.33;;;;;27.09;49.01;100500.72;5091300;27;45445;-70
2022/08/16 07:12:30;;;;;;;;;20.00;18.33;;;;;27.14;49.38;100497.38;5088833;27;45527;-70
2022/08/16 07:14:56;;;;;;;;;20.00;19.67;;;;;27.19;48.56;100489.47;5083545;27;45541;-70
2022/08/16 07:17:22;;;;;;;;;18.67;17.33;;;;;27.25;48.87;100508.78;5082030;27;46364;-70
2022/08/16 07:19:48;;;;;;;;;20.67;19.33;;;;;27.27;49.00;100501.25;5076849;27;45497;-70
2022/08/16 07:22:15;;;;;;;;;19.33;18.67;;;;;27.30;48.28;100500.84;5070422;28;45509;-71
2022/08/16 07:24:41;;;;;;;;;20.67;20.67;;;;;27.36;48.19;100505.50;5074384;28;45650;-70
2022/08/16 07:27:06;;;;;;;;;17.67;17.67;;;;;27.42;48.00;100507.41;5073145;28;45936;-70
2022/08/16 07:29:31;;;;;;;;;18.33;18.00;;;;;27.49;47.89;100516.47;5072187;28;45402;-71
2022/08/16 07:31:57;;;;;;;;;19.67;17.67;;;;;27.54;48.18;100521.31;5067377;28;45652;-70
2022/08/16 07:34:22;;;;;;;;;18.33;17.33;;;;;27.56;47.71;100526.56;5075891;27;45419;-70
2022/08/16 07:36:47;;;;;;;;;20.67;19.67;;;;;27.61;48.11;100526.81;5069177;28;45993;-71
2022/08/16 07:39:13;;;;;;;;;16.33;16.33;;;;;27.64;47.70;100531.03;5074263;28;45365;-70
2022/08/16 07:41:39;;;;;;;;;20.33;20.33;;;;;27.67;47.86;100534.19;5071524;28;45560;-70
2022/08/16 07:44:04;;;;;;;;;20.00;19.00;;;;;27.70;47.63;100532.94;5073615;28;45434;-69
2022/08/16 07:46:31;;;;;;;;;19.00;19.00;;;;;27.74;47.62;100534.22;5071023;28;46276;-70
2022/08/16 07:48:56;;;;;;;;;15.67;15.67;;;;;27.76;46.81;100534.88;5073861;28;45467;-71
2022/08/16 07:51:22;;;;;;;;;20.00;20.00;;;;;27.74;46.77;100535.09;5073892;28;45879;-70
2022/08/16 07:53:50;;;;;;;;;21.33;19.67;;;;;27.75;47.43;100527.75;5070381;28;45935;-71
2022/08/16 07:56:17;;;;;;;;;18.33;17.33;;;;;27.72;47.08;100519.97;5064764;28;46304;-70
2022/08/16 07:58:43;;;;;;;;;19.33;18.67;;;;;27.74;46.99;100521.44;5076598;28;45332;-70
2022/08/16 08:01:08;;;;;;;;;13.67;13.67;;;;;27.74;46.83;100507.81;5074368;28;45453;-70
2022/08/16 08:03:34;;;;;;;;;16.33;15.33;;;;;27.77;47.07;100508.44;5074869;28;45400;-70
2022/08/16 08:06:00;;;;;;;;;17.33;16.00;;;;;27.81;46.51;100515.19;5066389;27;45493;-70
2022/08/16 08:08:25;;;;;;;;;21.00;18.00;;;;;27.81;47.18;100510.56;5068843;28;45487;-71
2022/08/16 08:10:51;;;;;;;;;17.00;16.67;;;;;27.85;46.54;100506.41;5067420;27;45566;-71
2022/08/16 08:13:16;;;;;;;;;17.00;17.00;;;;;27.84;46.78;100518.34;5067574;28;45633;-70
2022/08/16 08:15:44;;;;;;;;;16.00;15.33;;;;;27.84;46.44;100512.06;5074470;28;45974;-70
2022/08/16 08:18:09;;;;;;;;;15.33;15.33;;;;;27.88;46.77;100524.25;5070814;28;45645;-71
2022/08/16 08:20:35;;;;;;;;;16.00;16.00;;;;;27.92;46.47;100524.66;5074318;28;45403;-70
2022/08/16 08:23:00;;;;;;;;;17.00;16.67;;;;;27.94;46.38;100528.03;5075127;27;45483;-70
2022/08/16 08:25:26;;;;;;;;;19.00;19.00;;;;;27.95;46.35;100529.72;5073971;28;45900;-69
2022/08/16 08:27:51;;;;;;;;;15.67;15.33;;;;;27.94;46.69;100526.16;5068273;28;45680;-70
2022/08/16 08:30:17;;;;;;;;;20.67;18.33;;;;;27.97;45.93;100533.94;5054561;28;45484;-70
2022/08/16 08:32:42;;;;;;;;;16.67;16.33;;;;;27.98;45.82;100530.16;5070697;28;45427;-71
2022/08/16 08:35:10;;;;;;;;;16.00;14.67;;;;;28.04;46.08;100531.22;5070913;28;45451;-71
2022/08/16 08:37:36;;;;;;;;;15.67;15.00;;;;;28.03;45.73;100534.97;5071281;28;45617;-71
2022/08/16 08:40:04;;;;;;;;;17.67;17.67;;;;;28.03;45.87;100534.97;5076286;28;45482;-72
2022/08/16 08:42:29;;;;;;;;;15.33;15.33;;;;;28.02;45.59;100534.16;5074179;28;45474;-70
2022/08/16 08:44:54;;;;;;;;;17.00;17.00;;;;;28.05;46.45;100532.06;5074094;28;46498;-71
2022/08/16 08:47:20;;;;;;;;;18.67;17.00;;;;;28.06;45.54;100531.00;5067545;28;45453;-70
2022/08/16 08:49:45;;;;;;;;;15.67;15.67;;;;;28.07;45.45;100519.06;5072328;28;45397;-71
2022/08/16 08:52:11;;;;;;;;;16.00;16.00;;;;;28.08;46.16;100523.47;5070816;28;45742;-70
2022/08/16 08:54:37;;;;;;;;;17.67;17.33;;;;;28.08;46.08;100532.47;5068845;28;45903;-71
2022/08/16 08:57:03;;;;;;;;;17.67;17.33;;;;;28.09;46.09;100536.91;5069189;28;45661;-72
2022/08/16 08:59:29;;;;;;;;;21.67;18.33;;;;;28.10;46.01;100538.59;5073206;28;45569;-72
2022/08/16 09:01:54;;;;;;;;;15.00;14.00;;;;;28.10;45.87;100538.59;5075098;28;45911;-72
2022/08/16 09:04:19;;;;;;;;;14.00;14.00;;;;;28.10;45.44;100537.75;5072928;28;45508;-72
2022/08/16 09:06:45;;;;;;;;;17.33;16.00;;;;;28.10;46.08;100543.19;5068502;28;46663;-72
2022/08/16 09:09:10;;;;;;;;;15.67;15.67;;;;;28.14;45.84;100550.78;5065110;27;45574;-71
2022/08/16 09:11:37;;;;;;;;;15.33;15.00;;;;;28.19;45.40;100552.88;5065375;28;45435;-70
2022/08/16 09:14:03;;;;;;;;;18.67;16.00;;;;;28.24;45.87;100555.00;5071469;28;47123;-71
2022/08/16 09:16:29;;;;;;;;;17.33;17.33;;;;;28.26;45.63;100556.53;5069016;28;45364;-71
2022/08/16 09:18:54;;;;;;;;;17.67;17.67;;;;;28.30;44.99;100550.63;5070206;28;45609;-72
2022/08/16 09:21:21;;;;;;;;;15.00;14.00;;;;;28.31;45.39;100553.16;5069117;28;45691;-71
2022/08/16 09:23:46;;;;;;;;;19.50;19.00;;;;;28.33;45.11;100551.09;5071160;28;46262;-72
2022/08/16 09:26:16;;;;;;;;;17.00;16.33;;;;;28.34;44.90;100550.03;5071043;28;45502;-73
2022/08/16 09:28:44;;;;;;;;;18.33;18.00;;;;;28.36;45.29;100555.28;5074433;28;45405;-73
2022/08/16 09:31:11;;;;;;;;;18.33;17.67;;;;;28.34;45.37;100550.03;5068873;28;45439;-70
2022/08/16 09:33:36;;;;;;;;;18.33;18.33;;;;;28.40;44.72;100551.94;5072411;28;45970;-71
2022/08/16 09:36:02;;;;;;;;;19.33;18.33;;;;;28.41;44.62;100550.06;5072395;28;45500;-71
2022/08/16 09:38:28;;;;;;;;;21.00;18.00;;;;;28.44;45.17;100551.53;5071681;28;45454;-70
2022/08/16 09:40:55;;;;;;;;;18.00;18.00;;;;;28.47;45.15;100562.88;5071151;28;46954;-72
2022/08/16 09:43:22;;;;;;;;;17.33;17.33;;;;;28.53;44.45;100558.47;5070684;28;46386;-69
2022/08/16 09:45:48;;;;;;;;;19.00;17.33;;;;;28.56;44.60;100546.28;5068039;28;45509;-69
2022/08/16 09:48:14;;;;;;;;;18.00;17.33;;;;;28.63;44.60;100536.22;5068159;28;45761;-69
2022/08/16 09:50:42;;;;;;;;;17.67;16.67;;;;;28.70;44.48;100552.59;5070564;28;45360;-69
2022/08/16 09:53:12;;;;;;;;;23.00;19.00;;;;;28.75;44.38;100550.09;5067507;28;46476;-70
2022/08/16 09:55:38;;;;;;;;;19.33;18.67;;;;;28.79;44.66;100548.63;5063689;28;45628;-69
2022/08/16 09:58:04;;;;;;;;;17.33;16.00;;;;;28.83;44.71;100549.03;5070526;28;45471;-68
2022/08/16 10:00:29;;;;;;;;;17.33;16.33;;;;;28.85;44.39;100546.97;5070340;28;45571;-69
2022/08/16 10:02:55;;;;;;;;;14.33;14.33;;;;;28.89;44.71;100551.81;5068779;28;45891;-69
2022/08/16 10:05:20;;;;;;;;;16.00;16.00;;;;;28.93;44.43;100549.50;5071458;28;46489;-69
2022/08/16 10:07:51;;;;;;;;;19.67;17.33;;;;;28.96;44.44;100551.81;5070589;28;45523;-69
2022/08/16 10:10:20;;;;;;;;;15.33;15.33;;;;;29.01;44.04;100556.66;5068380;27;45403;-69
2022/08/16 10:15:31;;;;;;;;;18.00;16.67;;;;;29.05;44.53;100556.00;5076260;27;45558;-69
2022/08/16 10:17:57;;;;;;;;;17.00;15.33;;;;;29.09;44.19;100552.88;5072779;28;45411;-68
2022/08/16 10:20:24;;;;;;;;;14.00;14.00;;;;;29.11;44.35;100550.75;5073768;28;45510;-70
2022/08/16 10:22:50;;;;;;;;;19.00;16.33;;;;;29.13;43.93;100554.09;5071425;28;45965;-71
2022/08/16 10:25:16;;;;;;;;;17.00;15.33;;;;;29.11;43.81;100548.88;5072623;28;45419;-70
2022/08/16 10:27:44;;;;;;;;;18.00;17.00;;;;;29.15;43.69;100560.22;5068948;28;45324;-70
2022/08/16 10:30:09;;;;;;;;;16.33;16.33;;;;;29.08;43.58;100552.03;5073928;28;45419;-71
2022/08/16 10:32:34;;;;;;;;;19.67;19.00;;;;;29.14;43.99;100559.38;5073615;28;46618;-69
2022/08/16 10:35:00;;;;;;;;;17.33;16.67;;;;;29.15;43.48;100557.47;5072954;28;48211;-70
2022/08/16 10:37:26;;;;;;;;;17.00;17.00;;;;;29.13;43.68;100554.09;5054488;28;45439;-69
2022/08/16 10:39:51;;;;;;;;;18.67;18.00;;;;;29.13;44.00;100552.22;5069827;28;52302;-69
2022/08/16 10:42:17;;;;;;;;;17.67;17.33;;;;;29.11;43.92;100548.03;5071034;28;45516;-69
2022/08/16 10:44:43;;;;;;;;;17.67;17.67;;;;;29.09;43.96;100537.31;5073522;28;45376;-69
2022/08/16 10:47:10;;;;;;;;;19.67;18.00;;;;;29.10;43.92;100543.63;5071381;28;45474;-69
2022/08/16 10:49:35;;;;;;;;;17.67;17.67;;;;;29.08;43.79;100546.56;5073181;28;46229;-69
2022/08/16 10:52:02;;;;;;;;;18.33;18.33;;;;;29.08;43.56;100556.63;5070883;28;45432;-69
2022/08/16 10:54:27;;;;;;;;;18.33;18.33;;;;;29.05;43.34;100560.63;5072964;28;45633;-69
2022/08/16 10:56:54;;;;;;;;;18.00;18.00;;;;;29.04;43.43;100559.81;5073887;28;45605;-69
2022/08/16 10:59:20;;;;;;;;;25.00;20.00;;;;;29.03;44.06;100557.28;5073631;27;45388;-69
2022/08/16 11:01:46;;;;;;;;;23.67;20.67;;;;;29.02;43.53;100561.88;5076304;27;46777;-69
2022/08/16 11:04:12;;;;;;;;;18.00;17.67;;;;;29.02;44.10;100555.59;5075990;28;45605;-70
2022/08/16 11:06:37;;;;;;;;;23.00;20.33;;;;;29.02;43.78;100566.53;5075746;28;45491;-70
2022/08/16 11:09:03;;;;;;;;;20.00;20.00;;;;;29.02;44.19;100572.00;5075912;28;45404;-71
2022/08/16 11:11:28;;;;;;;;;23.33;21.00;;;;;29.00;44.17;100566.72;5074827;28;46323;-71
2022/08/16 11:13:53;;;;;;;;;21.00;19.00;;;;;29.00;43.46;100566.72;5077082;28;45390;-70
2022/08/16 11:16:19;;;;;;;;;21.33;19.00;;;;;29.01;43.88;100571.13;5075334;28;45436;-70
2022/08/16 11:18:45;;;;;;;;;22.33;18.33;;;;;29.02;44.28;100570.09;5077331;28;45237;-69
2022/08/16 11:21:11;;;;;;;;;21.33;20.00;;;;;29.04;43.37;100578.06;5073784;28;45768;-70
2022/08/16 11:23:37;;;;;;;;;18.33;18.33;;;;;29.04;44.11;100570.72;5077032;28;45719;-71
2022/08/16 11:26:03;;;;;;;;;21.00;19.00;;;;;29.06;43.99;100567.78;5070874;27;45510;-70
2022/08/16 11:28:28;;;;;;;;;19.67;19.67;;;;;29.08;43.80;100565.69;5073697;27;45514;-71
2022/08/16 11:30:53;;;;;;;;;20.33;19.33;;;;;29.06;44.17;100556.88;5075422;28;51230;-70
2022/08/16 11:33:19;;;;;;;;;22.67;22.67;;;;;29.10;43.57;100560.00;5075868;28;45502;-71
2022/08/16 11:35:44;;;;;;;;;23.33;21.67;;;;;29.11;43.58;100559.81;5071519;28;45935;-71
2022/08/16 11:38:14;;;;;;;;;23.00;20.33;;;;;29.11;44.09;100557.06;5076032;28;45479;-72
2022/08/16 11:40:45;;;;;;;;;21.00;20.67;;;;;29.12;44.10;100560.63;5075628;28;47015;-71
2022/08/16 11:43:16;;;;;;;;;21.33;20.33;;;;;29.13;43.66;100567.75;5074732;28;45514;-71
2022/08/16 11:45:42;;;;;;;;;24.67;22.00;;;;;29.14;43.88;100572.19;5072728;28;45700;-72
2022/08/16 11:48:07;;;;;;;;;22.33;21.67;;;;;29.13;43.43;100568.63;5057846;28;45769;-71
2022/08/16 11:50:33;;;;;;;;;22.33;20.33;;;;;29.13;43.92;100562.31;5075123;27;46193;-71
2022/08/16 11:53:01;;;;;;;;;24.00;21.00;;;;;29.15;43.42;100560.22;5074726;28;45430;-71
2022/08/16 11:55:26;;;;;;;;;23.67;23.67;;;;;29.15;43.44;100552.03;5071044;27;45461;-71
2022/08/16 11:57:52;;;;;;;;;22.33;21.33;;;;;29.15;43.67;100558.34;5075728;28;45785;-70
2022/08/16 12:00:17;;;;;;;;;19.00;19.00;;;;;29.15;43.24;100550.13;5085943;27;46044;-70
2022/08/16 12:02:42;;;;;;;;;20.67;20.67;;;;;29.15;43.66;100557.47;5076611;27;45487;-71
2022/08/16 12:05:11;;;;;;;;;23.67;21.33;;;;;29.16;43.38;100549.06;5074929;28;45463;-70
2022/08/16 12:07:37;;;;;;;;;17.67;17.67;;;;;29.18;43.51;100557.91;5074310;28;45499;-69
2022/08/16 12:10:06;;;;;;;;;20.67;19.00;;;;;29.19;43.15;100561.47;5075455;28;45531;-69
2022/08/16 12:12:31;;;;;;;;;21.67;21.67;;;;;29.19;43.29;100556.00;5071631;28;45514;-70
2022/08/16 12:14:56;;;;;;;;;18.00;17.67;;;;;29.21;43.35;100567.56;5074555;28;45511;-70
2022/08/16 12:17:22;;;;;;;;;25.00;19.67;;;;;29.21;43.66;100564.00;5072737;27;46670;-70
2022/08/16 12:19:47;;;;;;;;;19.67;19.67;;;;;29.26;43.42;100567.75;5073264;28;45978;-70
2022/08/16 12:22:13;;;;;;;;;17.00;17.00;;;;;29.29;43.37;100570.09;5074966;28;45790;-68
2022/08/16 12:24:39;;;;;;;;;19.00;18.67;;;;;29.29;43.45;100564.63;5076018;28;45519;-69
2022/08/16 12:27:04;;;;;;;;;19.33;17.67;;;;;29.32;43.72;100561.47;5073487;28;45838;-68
2022/08/16 12:29:30;;;;;;;;;18.67;18.33;;;;;29.36;43.84;100564.59;5074902;28;46017;-70
2022/08/16 12:31:57;;;;;;;;;19.33;19.33;;;;;29.38;43.82;100558.94;5075241;28;45447;-70
2022/08/16 12:34:23;;;;;;;;;18.67;17.00;;;;;29.42;43.83;100557.47;5074948;28;45860;-70
2022/08/16 12:36:48;;;;;;;;;20.00;19.00;;;;;29.44;43.67;100538.94;5071977;28;46260;-70
2022/08/16 12:39:14;;;;;;;;;20.00;16.00;;;;;29.46;43.43;100542.28;5070745;28;46091;-70
2022/08/16 12:41:40;;;;;;;;;19.00;18.00;;;;;29.51;43.71;100541.69;5069589;28;45483;-70
2022/08/16 12:44:05;;;;;;;;;18.00;17.33;;;;;29.54;43.29;100542.09;5074421;28;45918;-70
2022/08/16 12:46:32;;;;;;;;;16.33;16.33;;;;;29.56;43.04;100545.47;5072125;28;45467;-70
2022/08/16 12:49:00;;;;;;;;;17.67;17.67;;;;;29.59;43.41;100541.47;5069096;28;46409;-70
2022/08/16 12:51:45;;;;;;;;;15.33;15.33;;;;;29.61;43.58;100543.97;5073006;27;45541;-69
2022/08/16 12:54:10;;;;;;;;;14.67;14.67;;;;;29.62;43.24;100538.28;5073838;28;45550;-69
2022/08/16 12:56:37;;;;;;;;;16.67;16.67;;;;;29.66;43.38;100538.69;5073426;28;45430;-69
2022/08/16 12:59:10;;;;;;;;;20.00;18.00;;;;;29.69;43.24;100546.47;5071262;28;46133;-69
2022/08/16 13:01:37;;;;;;;;;18.67;17.00;;;;;29.70;43.74;100540.78;5070124;28;45516;-71
2022/08/16 13:04:05;;;;;;;;;23.33;21.33;;;;;29.71;42.94;100539.72;5074709;28;45431;-70
2022/08/16 13:06:32;;;;;;;;;18.33;18.33;;;;;29.70;42.69;100538.06;5064540;28;45451;-70
2022/08/16 13:09:13;;;;;;;;;22.00;20.00;;;;;29.69;43.05;100535.53;5071028;27;47475;-70
2022/08/16 13:11:44;;;;;;;;;19.00;19.00;;;;;29.67;42.70;100529.44;5067655;28;45585;-70
2022/08/16 13:14:10;;;;;;;;;22.67;21.33;;;;;29.66;42.46;100534.06;5071183;28;45446;-71
2022/08/16 13:16:36;;;;;;;;;20.67;20.33;;;;;29.65;43.05;100528.81;5070434;28;45462;-70
2022/08/16 13:19:03;;;;;;;;;18.67;18.67;;;;;29.65;42.94;100523.34;5074076;28;46001;-70
2022/08/16 13:21:28;;;;;;;;;19.67;18.00;;;;;29.64;42.92;100518.94;5070497;28;45540;-71
2022/08/16 13:23:53;;;;;;;;;19.33;18.33;;;;;29.63;42.81;100511.78;5067866;28;45509;-68
2022/08/16 13:26:19;;;;;;;;;22.00;19.00;;;;;29.61;42.93;100512.00;5070245;28;45375;-70
2022/08/16 13:28:44;;;;;;;;;18.67;18.67;;;;;29.62;43.20;100510.13;5074231;28;45427;-71
2022/08/16 13:31:10;;;;;;;;;18.67;18.67;;;;;29.59;42.62;100506.75;5048545;28;45475;-69
2022/08/16 13:33:35;;;;;;;;;18.33;18.33;;;;;29.59;42.96;100493.06;5073909;28;45609;-69
2022/08/16 13:36:06;;;;;;;;;24.00;21.00;;;;;29.60;43.33;100493.94;5069460;28;45554;-69
2022/08/16 13:38:33;;;;;;;;;19.33;19.33;;;;;29.61;42.74;100494.75;5068815;28;46013;-69
2022/08/16 13:41:01;;;;;;;;;18.67;17.33;;;;;29.61;42.99;100486.53;5070037;28;45518;-68
2022/08/16 13:43:28;;;;;;;;;23.00;22.67;;;;;29.62;42.71;100488.25;5070145;28;45547;-69
2022/08/16 13:45:56;;;;;;;;;19.33;18.67;;;;;29.61;42.76;100489.28;5069870;28;45710;-70
2022/08/16 13:48:23;;;;;;;;;19.00;18.67;;;;;29.61;43.04;100483.81;5071680;28;45691;-70
2022/08/16 13:50:48;;;;;;;;;21.33;18.00;;;;;29.61;42.99;100475.59;5072931;28;45486;-71
2022/08/16 13:53:13;;;;;;;;;18.67;17.00;;;;;29.60;42.61;100477.50;5071299;28;46066;-71
2022/08/16 13:55:38;;;;;;;;;18.00;17.00;;;;;29.60;43.13;100469.31;5066768;28;45467;-71
2022/08/16 13:58:04;;;;;;;;;18.33;18.33;;;;;29.58;43.08;100472.25;5071659;27;46299;-71
2022/08/16 14:00:29;;;;;;;;;15.33;15.33;;;;;29.58;42.42;100476.88;5072777;27;46420;-70
2022/08/16 14:02:54;;;;;;;;;18.33;17.33;;;;;29.58;42.47;100468.69;5074237;28;45437;-71
2022/08/16 14:05:20;;;;;;;;;18.33;18.33;;;;;29.56;42.63;100468.91;5073149;28;45562;-69
2022/08/16 14:07:45;;;;;;;;;21.00;19.33;;;;;29.57;42.44;100470.59;5071015;28;45621;-69
2022/08/16 14:10:12;;;;;;;;;17.33;16.67;;;;;29.59;42.64;100473.09;5067830;28;45420;-71
2022/08/16 14:12:38;;;;;;;;;17.33;16.33;;;;;29.61;42.29;100472.88;5073953;28;45451;-71
2022/08/16 14:15:07;;;;;;;;;16.67;16.67;;;;;29.64;43.12;100481.50;5072896;28;45482;-71
2022/08/16 14:17:33;;;;;;;;;23.00;21.33;;;;;29.66;42.47;100486.72;5074091;27;46348;-70
2022/08/16 14:19:58;;;;;;;;;22.67;20.67;;;;;29.64;42.58;100478.75;5066903;27;45648;-72
2022/08/16 14:22:27;;;;;;;;;18.00;18.00;;;;;29.67;42.69;100483.78;5069700;28;45851;-70
2022/08/16 14:24:55;;;;;;;;;21.00;19.67;;;;;29.67;42.75;100482.97;5052294;28;45553;-72
2022/08/16 14:27:23;;;;;;;;;18.67;16.33;;;;;29.68;42.78;100479.97;5073324;28;46270;-71
2022/08/16 14:29:50;;;;;;;;;20.67;20.00;;;;;29.68;42.76;100482.72;5072931;27;47184;-71
2022/08/16 14:32:16;;;;;;;;;19.33;18.67;;;;;29.68;42.63;100477.25;5077632;27;45481;-71
2022/08/16 14:34:42;;;;;;;;;19.67;18.00;;;;;29.68;42.77;100488.19;5076378;28;45434;-69
2022/08/16 14:37:07;;;;;;;;;17.33;16.33;;;;;29.69;43.04;100487.16;5075155;28;45454;-69
2022/08/16 14:39:33;;;;;;;;;18.67;17.33;;;;;29.68;42.56;100490.09;5070277;28;45521;-70
2022/08/16 14:42:04;;;;;;;;;19.00;19.00;;;;;29.70;42.63;100479.78;5075879;28;45410;-71
2022/08/16 14:44:31;;;;;;;;;20.33;19.00;;;;;29.71;42.87;100485.03;5069880;28;45787;-71
2022/08/16 14:46:56;;;;;;;;;18.00;18.00;;;;;29.71;42.67;100478.75;5073635;28;46426;-70
2022/08/16 14:49:21;;;;;;;;;22.33;21.33;;;;;29.72;42.58;100489.44;5072976;28;46619;-71
2022/08/16 14:51:47;;;;;;;;;19.67;19.67;;;;;29.73;42.63;100476.63;5076359;28;45433;-70
2022/08/16 14:54:13;;;;;;;;;20.00;20.00;;;;;29.73;42.36;100476.63;5075829;28;45396;-71
2022/08/16 14:56:38;;;;;;;;;19.33;17.67;;;;;29.73;42.82;100471.16;5075700;28;46335;-70
2022/08/16 14:59:03;;;;;;;;;17.00;17.00;;;;;29.72;42.32;100458.53;5076554;28;45468;-70
2022/08/16 15:01:29;;;;;;;;;17.67;15.67;;;;;29.70;42.17;100464.22;5076094;28;45497;-71
2022/08/16 15:03:55;;;;;;;;;20.00;20.00;;;;;29.71;41.79;100474.09;5076319;28;45641;-70
2022/08/16 15:06:20;;;;;;;;;19.67;18.00;;;;;29.71;42.49;100471.34;5057409;28;46311;-71
2022/08/16 15:08:45;;;;;;;;;18.00;18.00;;;;;29.71;42.49;100460.41;5074034;28;45553;-71
2022/08/16 15:11:11;;;;;;;;;18.67;17.67;;;;;29.72;42.39;100453.06;5074633;27;45541;-70
2022/08/16 15:13:36;;;;;;;;;17.33;17.33;;;;;29.71;41.92;100445.94;5070164;28;45478;-70
2022/08/16 15:16:02;;;;;;;;;21.00;19.00;;;;;29.70;41.95;100441.47;5065292;28;45539;-70
2022/08/16 15:18:28;;;;;;;;;20.33;19.33;;;;;29.69;42.25;100446.13;5074825;27;45817;-70
2022/08/16 15:20:53;;;;;;;;;17.33;15.00;;;;;29.70;42.48;100442.34;5071639;28;45464;-68
2022/08/16 15:23:18;;;;;;;;;20.00;17.33;;;;;29.71;42.17;100429.50;5072703;28;45323;-69
2022/08/16 15:25:48;;;;;;;;;18.00;15.00;;;;;29.67;41.97;100418.16;5066553;28;46163;-69
2022/08/16 15:28:14;;;;;;;;;21.00;20.33;;;;;29.71;41.73;100421.31;5073611;27;45499;-69
2022/08/16 15:30:40;;;;;;;;;21.33;20.00;;;;;29.71;42.41;100415.84;5067800;28;45391;-69
2022/08/16 15:33:13;;;;;;;;;19.00;19.00;;;;;29.70;41.96;100406.78;5067820;28;45400;-70
2022/08/16 15:35:41;;;;;;;;;23.00;21.00;;;;;29.69;42.14;100399.66;5075529;28;46072;-70
2022/08/16 15:38:07;;;;;;;;;17.00;17.00;;;;;29.70;42.03;100392.25;5068468;28;45367;-69
2022/08/16 15:40:34;;;;;;;;;22.00;20.67;;;;;29.71;41.90;100403.00;5065418;28;45676;-68
2022/08/16 15:42:59;;;;;;;;;18.33;17.67;;;;;29.71;42.46;100411.19;5067792;28;45502;-69
2022/08/16 15:48:11;;;;;;;;;17.33;17.33;;;;;29.72;42.21;100403.84;5067660;27;46158;-69
2022/08/16 15:50:37;;;;;;;;;21.00;19.67;;;;;29.74;42.07;100390.78;5076899;27;45429;-69
2022/08/16 15:53:15;;;;;;;;;19.67;17.67;;;;;29.75;42.47;100386.97;5075787;28;45435;-69
2022/08/16 15:55:42;;;;;;;;;17.00;17.00;;;;;29.77;42.07;100389.50;5075862;28;46090;-69
2022/08/16 15:58:09;;;;;;;;;17.33;15.67;;;;;29.77;41.91;100378.56;5076058;28;45582;-70
2022/08/16 16:00:34;;;;;;;;;20.33;20.00;;;;;29.79;42.18;100377.28;5076486;28;45465;-69
2022/08/16 16:03:06;;;;;;;;;17.33;17.00;;;;;29.78;42.45;100381.06;5075535;28;45518;-69
2022/08/16 16:05:33;;;;;;;;;17.00;17.00;;;;;29.76;42.47;100396.88;5075088;27;45440;-71
2022/08/16 16:07:58;;;;;;;;;23.00;20.00;;;;;29.76;42.48;100418.75;5074326;28;45443;-69
2022/08/16 16:10:25;;;;;;;;;18.67;17.67;;;;;29.78;42.24;100429.44;5075927;28;45539;-69
2022/08/16 16:12:52;;;;;;;;;18.67;18.67;;;;;29.80;42.67;100419.97;5075223;28;45474;-68
2022/08/16 16:15:21;;;;;;;;;18.33;17.33;;;;;29.82;42.77;100408.81;5074364;27;45992;-68
2022/08/16 16:17:46;;;;;;;;;17.00;17.00;;;;;29.82;43.58;100395.13;5075826;28;45426;-68
2022/08/16 16:20:12;;;;;;;;;19.33;19.33;;;;;29.82;43.61;100387.78;5076058;28;46640;-70
2022/08/16 16:22:38;;;;;;;;;20.67;20.00;;;;;29.82;43.71;100397.88;5077103;28;45301;-69
2022/08/16 16:25:04;;;;;;;;;24.33;22.67;;;;;29.79;44.19;100442.91;5074029;28;46338;-70
2022/08/16 16:27:29;;;;;;;;;19.00;19.00;;;;;29.77;44.18;100477.88;5075011;28;45455;-70
2022/08/16 16:29:55;;;;;;;;;18.00;16.00;;;;;29.78;44.05;100506.88;5076131;28;45453;-69
2022/08/16 16:32:20;;;;;;;;;16.00;16.00;;;;;29.76;44.30;100558.25;5074090;28;45446;-69
2022/08/16 16:34:45;;;;;;;;;16.00;16.00;;;;;29.75;44.15;100591.28;5074938;28;54104;-70
2022/08/16 16:37:12;;;;;;;;;16.33;15.67;;;;;29.72;44.28;100587.06;5071659;27;46037;-69
2022/08/16 16:39:37;;;;;;;;;12.33;11.00;;;;;29.66;43.99;100591.50;5076750;28;45418;-69
2022/08/16 16:42:04;;;;;;;;;7.33;7.33;;;;;29.62;44.58;100597.63;5074487;28;45454;-69
2022/08/16 16:44:29;;;;;;;;;13.67;11.33;;;;;29.58;44.44;100569.84;5075008;28;47297;-69
2022/08/16 16:46:54;;;;;;;;;12.67;9.67;;;;;29.55;44.82;100524.63;5073859;28;50219;-70
2022/08/16 16:49:20;;;;;;;;;10.33;8.67;;;;;29.48;44.63;100493.72;5074595;28;45371;-69
2022/08/16 16:51:46;;;;;;;;;9.67;9.00;;;;;29.40;44.97;100486.59;5073083;28;45442;-69
2022/08/16 16:54:11;;;;;;;;;9.00;7.67;;;;;29.32;44.52;100504.06;5075733;28;45902;-69
2022/08/16 16:56:37;;;;;;;;;7.67;7.67;;;;;29.28;45.13;100534.75;5055703;28;45499;-69
2022/08/16 16:59:06;;;;;;;;;7.67;7.67;;;;;29.24;45.31;100541.69;5074879;28;45370;-69
2022/08/16 17:01:43;;;;;;;;;8.33;8.33;;;;;29.19;45.01;100524.03;5074560;28;45444;-69
2022/08/16 17:04:12;;;;;;;;;9.00;8.00;;;;;29.17;45.28;100500.72;5074370;28;47276;-70
2022/08/16 17:06:38;;;;;;;;;9.33;8.67;;;;;29.14;45.06;100479.31;5074707;28;45415;-68
2022/08/16 17:09:09;;;;;;;;;9.33;9.33;;;;;29.14;45.52;100473.84;5074067;28;45907;-68
2022/08/16 17:11:41;;;;;;;;;8.67;8.67;;;;;29.10;45.03;100458.91;5073603;28;45436;-69
